Flight Track Log - Related Links

Times and Time Zones

All times are in EDT time to prevent confusion due to time zone crossing. See the AAL1326 flight status page for this flight to view local times or setup timezone preferences in your user account.

Time Position Orientation Groundspeed Altitude Reporting Facility
EDT Latitude Longitude Course Direction KTS MPH feet Rate Location/Type
Sat 04:36:53 PM 39.3000 -94.7333 47° Northeast 168 193 1,800  Level Kansas City TRACON
Sat 04:37:17 PM 39.3000 -94.7500 270° West 164 189 2,900 1,950 Climbing Kansas City TRACON
Sat 04:37:33 PM 39.3011 -94.7569 282° West 169 194 3,100 2,053 Climbing Kansas City Center
Sat 04:38:33 PM 39.3578 -94.7767 345° North 253 291 5,500 2,516 Climbing Kansas City Center
Sat 04:39:00 PM 39.4972 -94.4596 41° Northeast  Level FlightAware Approximate
Sat 04:39:37 PM 39.3986 -94.6947 57° Northeast 282 325 8,300  Level Kansas City Center
Sat 04:40:00 PM 39.5780 -94.3641 45° Northeast  Level FlightAware Approximate
Sat 04:40:38 PM 39.4522 -94.5850 58° Northeast 326 375 10,800  Level Kansas City Center
Sat 04:41:00 PM 39.6556 -94.2642 45° Northeast  Level FlightAware Approximate
Sat 04:41:40 PM 39.5181 -94.4878 49° Northeast 378 435 12,600  Level Kansas City Center
Sat 04:42:00 PM 39.7305 -94.1607 47° Northeast  Level FlightAware Approximate
Sat 04:42:40 PM 39.6028 -94.3653 48° Northeast 408 470 15,800  Level Kansas City Center
Sat 04:43:44 PM 39.6775 -94.2567 48° Northeast 420 483 18,600 2,448 Climbing Kansas City Center
Sat 04:44:45 PM 39.7569 -94.1425 48° Northeast 443 510 20,900 2,430 Climbing Kansas City Center
Sat 04:45:45 PM 39.8472 -94.0081 49° Northeast 462 532 23,500 2,274 Climbing Kansas City Center
Sat 04:46:49 PM 39.9353 -93.8836 47° Northeast 469 540 25,600 1,872 Climbing Kansas City Center
Sat 04:47:50 PM 40.0244 -93.7506 49° Northeast 484 557 27,400 1,623 Climbing Kansas City Center
Sat 04:48:51 PM 40.0756 -93.5408 72° East 512 589 28,900 1,645 Climbing Kansas City Center
Sat 04:49:54 PM 40.1172 -93.3594 73° East 523 602 30,800 1,984 Climbing Kansas City Center
Sat 04:50:55 PM 40.1578 -93.1842 73° East 513 590 33,000 1,082 Climbing Kansas City Center
Sat 04:51:56 PM 40.2017 -92.9942 73° East 496 571 33,000  Level Kansas City Center
Sat 04:53:00 PM 40.2403 -92.8281 73° East 495 570 33,000  Level Kansas City Center
Sat 04:54:01 PM 40.2786 -92.6614 73° East 498 573 33,000  Level Kansas City Center
Sat 04:55:01 PM 40.3225 -92.4669 73° East 499 574 33,000  Level Kansas City Center
Sat 04:56:05 PM 40.3589 -92.3011 74° East 510 587 33,000  Level Kansas City Center
Sat 04:57:04 PM 40.3975 -92.1267 74° East 507 583 33,000  Level Kansas City Center
Sat 04:58:07 PM 40.4425 -91.9144 74° East 507 583 33,000  Level Kansas City Center
Sat 04:59:08 PM 40.4808 -91.7383 74° East 507 583 33,000  Level Kansas City Center
Sat 04:59:55 PM 40.5119 -91.5981 74° East 504 580 33,000  Level Chicago Center
Sat 05:00:57 PM 40.5497 -91.4222 74° East 504 580 33,000  Level Chicago Center
Sat 05:01:59 PM 40.6086 -91.2433 67° East 504 580 33,000  Level Chicago Center
Sat 05:03:00 PM 40.6661 -91.0775 65° Northeast 498 573 33,000  Level Chicago Center
Sat 05:04:02 PM 40.7225 -90.9103 66° East 499 574 33,000  Level Chicago Center
Sat 05:05:03 PM 40.7789 -90.7433 66° East 498 573 33,000  Level Chicago Center
Sat 05:06:05 PM 40.8353 -90.5756 66° East 498 573 33,000  Level Chicago Center
Sat 05:07:07 PM 40.8917 -90.4092 66° East 494 568 33,000 -634 Level Chicago Center
Sat 05:08:08 PM 40.9467 -90.2436 66° East 493 567 31,700 -1,756 Descending Chicago Center
Sat 05:09:10 PM 41.0011 -90.0747 67° East 491 565 29,400 -2,195 Descending Chicago Center
Sat 05:10:11 PM 41.0544 -89.9111 67° East 480 552 27,200 -2,390 Descending Chicago Center
Sat 05:11:13 PM 41.1172 -89.7200 66° East 468 539 24,500 -1,659 Descending Chicago Center
Sat 05:12:14 PM 41.1678 -89.5669 66° East 453 521 23,800 -1,171 Descending Chicago Center
Sat 05:13:16 PM 41.2283 -89.4217 61° Northeast 448 516 22,100 -2,129 Descending Chicago Center
Sat 05:14:18 PM 41.2869 -89.2758 62° Northeast 447 514 19,400 -2,780 Descending Chicago Center
Sat 05:15:19 PM 41.3494 -89.1164 62° Northeast 438 504 16,400 -2,683 Descending Chicago Center
Sat 05:16:21 PM 41.4053 -88.9747 62° Northeast 435 501 13,900 -2,341 Descending Chicago Center
Sat 05:17:22 PM 41.4625 -88.8331 62° Northeast 432 497 11,600 -1,415 Descending Chicago Center
Sat 05:18:24 PM 41.5156 -88.6986 62° Northeast 413 475 11,000 -293 Descending Chicago Center
Sat 05:19:25 PM 41.5683 -88.5639 62° Northeast 410 472 11,000  Level Chicago Center
Sat 05:20:27 PM 41.6267 -88.4342 59° Northeast 407 468 11,000  Level Chicago Center
Sat 05:21:28 PM 41.6964 -88.3147 52° Northeast 405 466 11,000 -390 Level Chicago Center
Sat 05:22:30 PM 41.7586 -88.2111 51° Northeast 357 411 10,200 -1,073 Descending Chicago Center
Sat 05:23:31 PM 41.8214 -88.1181 48° Northeast 343 395 8,800 -1,415 Descending Chicago Center
Sat 05:24:33 PM 41.9283 -88.1006 North 325 374 7,300 -864 Descending Chicago Center
Sat 05:25:36 PM 42.0000 -88.1000 360° North 256 295 7,000 -390 Descending Chicago TRACON
Sat 05:26:36 PM 42.0489 -88.1336 333° Northwest 211 243 6,500 -992 Descending Chicago Center
Sat 05:27:37 PM 42.0911 -88.1767 323° Northwest 196 226 5,000 -1,317 Descending Chicago Center
Sat 05:28:39 PM 42.1458 -88.1878 351° North 233 268 3,800 -968 Descending Chicago Center
Sat 05:29:41 PM 42.1444 -88.1236 92° East 194 223 3,000 -453 Descending Chicago Center
Sat 05:30:25 PM 42.1167 -88.0833 133° Southeast 163 188 3,000  Level Chicago TRACON
Sat 05:31:25 PM 42.0833 -88.0333 132° Southeast 168 193 3,000  Level Chicago TRACON

Login

Don't have an account? Register now (free) for customized features, flight alerts, and more!